Darstellungsparameter: Aktuell verwendete Einstellungen:
Skalierung der Graphiken ... ?
xyx+y,   Skalierungsfaktor:      Skalierung: Modus: x, Faktor: 1
Darstellungszeitraum ... ?
Vom - - bis: - -   Zeitraum: 18.05.2021 - 18.05.2021
Min/Max/Avg-Anzeige ... ?
Zeige MMA aktuell
Zeige MMA Monat
Zeige MMA alles
Zeige --A aktuell
Zeige --A Monat
Zeige --A alles
Keine MMA-Anzeige
MMA:
Keine MMA-Graphiken
MMA-Basis: 18.05.2021 - 18.05.2021
Quicknavigation für Darstellung... ?
Tage:      1T, 2T, 3T, 5T -1T -2T -3T -5T +1T +2T +3T +5T
Wochen: 1W, 2W, 3W -1W -2W -3W +1W +2W +3W
Monate: 1M, 3M, 6M -1M -3M -6M +1M +3M +6M
Jahre:    1J, 3J, 5J, 10J -1J -3J -5J -10J +1J +3J +5J +10J
Nutze für die Darstellung ... ?
Originaldaten oder Mittelwerte auf ...
Stundenbasis Tagesbasis Wochenbasis
Monatsbasis Jahresbasis      Datenbasis: Original-Daten
Darstellen als:
Statistik (Auto) Statistik J:M      Darstellung:
Zur Graphik,    zurück zur Übersicht aller Sensoren.
 
Tabellarische Datenbersicht: ?
 
Sensor: Nr:Datum:Temp:Feuchte:
Aussen-T/F 1 18-05-2021 00:06:17 11.2 C 40 %
2 18-05-2021 00:16:17 11 C 40 %
3 18-05-2021 00:26:17 10.7 C 40 %
4 18-05-2021 00:36:17 10.6 C 41 %
5 18-05-2021 00:46:17 10.7 C 41 %
6 18-05-2021 00:56:17 10.9 C 40 %
7 18-05-2021 01:06:17 10.8 C 40 %
8 18-05-2021 01:16:17 10.7 C 40 %
9 18-05-2021 01:26:17 10.7 C 40 %
10 18-05-2021 01:36:17 10.8 C 40 %
11 18-05-2021 01:46:17 10.7 C 40 %
12 18-05-2021 01:56:17 10.8 C 40 %
13 18-05-2021 02:06:17 10.4 C 41 %
14 18-05-2021 02:16:17 10 C 43 %
15 18-05-2021 02:26:17 9.8 C 45 %
16 18-05-2021 02:36:17 9.7 C 46 %
17 18-05-2021 02:46:17 9.6 C 46 %
18 18-05-2021 02:56:17 9.7 C 45 %
19 18-05-2021 03:06:17 9.6 C 45 %
20 18-05-2021 03:16:17 9.3 C 45 %
21 18-05-2021 03:26:17 9.3 C 45 %
22 18-05-2021 03:36:17 9.2 C 46 %
23 18-05-2021 03:46:17 9.3 C 45 %
24 18-05-2021 03:56:17 9.2 C 45 %
25 18-05-2021 04:06:17 9.1 C 44 %
Sensor: Nr:Datum:Temp:Feuchte:
Aussen-T/F 26 18-05-2021 04:16:17 9.1 C 45 %
27 18-05-2021 04:26:17 9.4 C 42 %
28 18-05-2021 04:36:17 9.3 C 42 %
29 18-05-2021 04:46:17 9 C 43 %
30 18-05-2021 04:56:17 8.8 C 45 %
31 18-05-2021 05:06:17 8.6 C 46 %
32 18-05-2021 05:16:17 8.9 C 45 %
33 18-05-2021 05:26:17 9.4 C 42 %
34 18-05-2021 05:36:17 9.3 C 42 %
35 18-05-2021 05:46:17 9.2 C 42 %
36 18-05-2021 05:56:17 9 C 42 %
37 18-05-2021 06:06:17 8.9 C 43 %
38 18-05-2021 06:16:18 8.4 C 45 %
39 18-05-2021 06:26:18 8.2 C 46 %
40 18-05-2021 06:36:17 8.1 C 46 %
41 18-05-2021 06:46:17 8.6 C 46 %
42 18-05-2021 06:56:17 8.8 C 45 %
43 18-05-2021 07:06:17 8.7 C 45 %
44 18-05-2021 07:16:17 8.7 C 46 %
45 18-05-2021 07:26:17 9.3 C 44 %
46 18-05-2021 07:36:17 9.6 C 44 %
47 18-05-2021 07:46:18 10.2 C 41 %
48 18-05-2021 07:56:18 10.4 C 41 %
49 18-05-2021 08:06:17 10.8 C 40 %
50 18-05-2021 08:16:17 11.3 C 39 %
Sensor: Nr:Datum:Temp:Feuchte:
Aussen-T/F 51 18-05-2021 08:26:18 11.3 C 38 %
52 18-05-2021 08:36:17 11.3 C 38 %
53 18-05-2021 08:46:17 11.9 C 38 %
54 18-05-2021 08:56:17 12.2 C 36 %
55 18-05-2021 09:06:17 12.4 C 36 %
56 18-05-2021 09:16:17 11.7 C 37 %
57 18-05-2021 09:26:17 11 C 39 %
58 18-05-2021 09:36:18 10.4 C 42 %
59 18-05-2021 09:46:17 9.8 C 41 %
60 18-05-2021 09:56:17 9.6 C 43 %
61 18-05-2021 10:06:17 9.5 C 43 %
62 18-05-2021 10:16:17 9.3 C 44 %
63 18-05-2021 10:26:17 9.2 C 44 %
64 18-05-2021 10:36:17 9.3 C 42 %
65 18-05-2021 10:46:17 9.6 C 41 %
66 18-05-2021 10:56:17 10 C 41 %
67 18-05-2021 11:06:17 10.1 C 41 %
68 18-05-2021 11:16:17 10.4 C 41 %
69 18-05-2021 11:26:17 10.8 C 40 %
70 18-05-2021 11:36:17 11 C 39 %
71 18-05-2021 11:46:17 10.8 C 40 %
72 18-05-2021 11:56:17 10.7 C 40 %
73 18-05-2021 12:06:17 11 C 39 %
74 18-05-2021 12:16:17 13.2 C 35 %
75 18-05-2021 12:26:17 13.2 C 35 %
Sensor: Nr:Datum:Temp:Feuchte:
Aussen-T/F 76 18-05-2021 12:36:17 12.5 C 36 %
77 18-05-2021 12:46:17 12.6 C 36 %
78 18-05-2021 12:56:17 12.9 C 36 %
79 18-05-2021 13:06:17 13.2 C 35 %
80 18-05-2021 13:16:17 13.7 C 35 %
81 18-05-2021 13:26:17 14.6 C 33 %
82 18-05-2021 13:36:17 14.6 C 34 %
83 18-05-2021 13:46:17 15.8 C 32 %
84 18-05-2021 13:56:17 13.5 C 33 %
85 18-05-2021 14:06:17 11.1 C 37 %
86 18-05-2021 14:16:17 10 C 45 %
87 18-05-2021 14:26:17 10.7 C 45 %
88 18-05-2021 14:36:17 13.7 C 35 %
89 18-05-2021 14:46:17 14.4 C 35 %
90 18-05-2021 14:56:17 11.7 C 37 %
91 18-05-2021 15:06:17 10.8 C 42 %
92 18-05-2021 15:16:17 10.6 C 44 %
93 18-05-2021 15:26:17 10.7 C 45 %
94 18-05-2021 15:36:17 10.6 C 44 %
95 18-05-2021 15:46:17 11.2 C 43 %
96 18-05-2021 15:56:17 13.4 C 38 %
97 18-05-2021 16:06:17 12.3 C 39 %
98 18-05-2021 16:16:17 11.6 C 41 %
99 18-05-2021 16:26:17 10.7 C 44 %
100 18-05-2021 16:36:17 10.5 C 44 %
Sensor: Nr:Datum:Temp:Feuchte:
Aussen-T/F 101 18-05-2021 16:46:17 10.3 C 42 %
102 18-05-2021 16:56:17 15 C 35 %
103 18-05-2021 17:06:17 16.2 C 31 %
104 18-05-2021 17:16:17 13 C 36 %
105 18-05-2021 17:26:17 12.6 C 39 %
106 18-05-2021 17:36:17 13 C 36 %
107 18-05-2021 17:46:17 12.1 C 39 %
108 18-05-2021 17:56:17 11.4 C 41 %
109 18-05-2021 18:06:17 11.7 C 40 %
110 18-05-2021 18:16:17 13.4 C 37 %
111 18-05-2021 18:26:17 13.6 C 36 %
112 18-05-2021 18:36:17 13.3 C 37 %
113 18-05-2021 18:46:18 13.3 C 37 %
114 18-05-2021 18:56:18 13.3 C 37 %
115 18-05-2021 19:06:17 12.2 C 41 %
116 18-05-2021 19:16:17 11.2 C 39 %
117 18-05-2021 19:26:17 9.2 C 43 %
118 18-05-2021 19:36:17 9.1 C 47 %
119 18-05-2021 19:46:17 9 C 47 %
120 18-05-2021 19:56:17 9 C 47 %
121 18-05-2021 20:06:17 8.9 C 48 %
122 18-05-2021 20:16:17 9.2 C 47 %
123 18-05-2021 20:26:17 9.2 C 46 %
124 18-05-2021 20:36:17 9.2 C 47 %
125 18-05-2021 20:46:17 8.9 C 48 %
Sensor: Nr:Datum:Temp:Feuchte:
Aussen-T/F 126 18-05-2021 20:56:17 8.8 C 48 %
127 18-05-2021 21:06:17 8.7 C 48 %
128 18-05-2021 21:16:17 8.6 C 48 %
129 18-05-2021 21:26:17 8.7 C 48 %
130 18-05-2021 21:36:17 8.5 C 48 %
131 18-05-2021 21:46:17 8.2 C 48 %
132 18-05-2021 21:56:17 8.2 C 48 %
133 18-05-2021 22:06:17 7.9 C 48 %
134 18-05-2021 22:16:17 7.8 C 48 %
135 18-05-2021 22:26:17 7.8 C 48 %
136 18-05-2021 22:36:17 8.1 C 47 %
137 18-05-2021 22:46:18 8.2 C 47 %
138 18-05-2021 22:56:18 8.3 C 47 %
139 18-05-2021 23:06:18 8.3 C 47 %
140 18-05-2021 23:16:17 8.3 C 47 %
141 18-05-2021 23:26:18 8.3 C 47 %
142 18-05-2021 23:36:17 8.3 C 47 %
143 18-05-2021 23:46:17 7.9 C 47 %
144 18-05-2021 23:56:17 7.7 C 48 %
Sensor: Nr:Datum:Temp:Feuchte:
G-T/H 1 18-05-2021 00:06:17 14.4 C 67 %
2 18-05-2021 00:16:17 14.4 C 67 %
3 18-05-2021 00:26:17 14.4 C 67 %
4 18-05-2021 00:36:17 14.4 C 67 %
5 18-05-2021 00:46:17 14.4 C 67 %
6 18-05-2021 00:56:17 14.3 C 67 %
7 18-05-2021 01:06:17 14.3 C 67 %
8 18-05-2021 01:16:17 14.3 C 67 %
9 18-05-2021 01:26:17 14.4 C 67 %
10 18-05-2021 01:36:17 14.4 C 67 %
11 18-05-2021 01:46:17 14.3 C 67 %
12 18-05-2021 01:56:17 14.3 C 67 %
13 18-05-2021 02:06:17 14.3 C 67 %
14 18-05-2021 02:16:17 14.3 C 67 %
15 18-05-2021 02:26:17 14.3 C 67 %
16 18-05-2021 02:36:17 14.3 C 67 %
17 18-05-2021 02:46:17 14.3 C 67 %
18 18-05-2021 02:56:17 14.3 C 67 %
19 18-05-2021 03:06:17 14.3 C 67 %
20 18-05-2021 03:16:17 14.3 C 67 %
21 18-05-2021 03:26:17 14.2 C 67 %
22 18-05-2021 03:36:17 14.2 C 67 %
23 18-05-2021 03:46:17 14.2 C 67 %
24 18-05-2021 03:56:17 14.2 C 67 %
25 18-05-2021 04:06:17 14.2 C 67 %
Sensor: Nr:Datum:Temp:Feuchte:
G-T/H 26 18-05-2021 04:16:17 14.2 C 67 %
27 18-05-2021 04:26:17 14.2 C 67 %
28 18-05-2021 04:36:17 14.2 C 67 %
29 18-05-2021 04:46:17 14.2 C 67 %
30 18-05-2021 04:56:17 14.1 C 67 %
31 18-05-2021 05:06:17 14.1 C 67 %
32 18-05-2021 05:16:17 14.1 C 67 %
33 18-05-2021 05:26:17 14.1 C 67 %
34 18-05-2021 05:36:17 14.1 C 67 %
35 18-05-2021 05:46:17 14.1 C 67 %
36 18-05-2021 05:56:17 14.1 C 67 %
37 18-05-2021 06:06:17 14.1 C 66 %
38 18-05-2021 06:16:18 14.1 C 66 %
39 18-05-2021 06:26:18 14 C 66 %
40 18-05-2021 06:36:17 14 C 66 %
41 18-05-2021 06:46:17 14 C 66 %
42 18-05-2021 06:56:17 14 C 66 %
43 18-05-2021 07:06:17 14 C 66 %
44 18-05-2021 07:16:17 14 C 66 %
45 18-05-2021 07:26:17 14 C 66 %
46 18-05-2021 07:36:17 14 C 66 %
47 18-05-2021 07:46:18 14 C 66 %
48 18-05-2021 07:56:18 13.9 C 67 %
49 18-05-2021 08:06:17 13.9 C 67 %
50 18-05-2021 08:16:17 13.9 C 67 %
Sensor: Nr:Datum:Temp:Feuchte:
G-T/H 51 18-05-2021 08:26:18 13.9 C 67 %
52 18-05-2021 08:36:17 13.9 C 67 %
53 18-05-2021 08:46:17 13.9 C 67 %
54 18-05-2021 08:56:17 13.9 C 67 %
55 18-05-2021 09:06:17 13.9 C 67 %
56 18-05-2021 09:16:17 13.9 C 67 %
57 18-05-2021 09:26:17 13.9 C 67 %
58 18-05-2021 09:36:18 13.8 C 67 %
59 18-05-2021 09:46:17 13.8 C 67 %
60 18-05-2021 09:56:17 13.8 C 67 %
61 18-05-2021 10:06:17 13.8 C 67 %
62 18-05-2021 10:16:17 13.8 C 67 %
63 18-05-2021 10:26:17 13.8 C 67 %
64 18-05-2021 10:36:17 13.8 C 67 %
65 18-05-2021 10:46:17 13.8 C 67 %
66 18-05-2021 10:56:17 13.8 C 67 %
67 18-05-2021 11:06:17 13.8 C 67 %
68 18-05-2021 11:16:17 13.8 C 67 %
69 18-05-2021 11:26:17 13.8 C 67 %
70 18-05-2021 11:36:17 13.8 C 67 %
71 18-05-2021 11:46:17 13.8 C 67 %
72 18-05-2021 11:56:17 13.7 C 67 %
73 18-05-2021 12:06:17 13.7 C 67 %
74 18-05-2021 12:16:17 13.7 C 67 %
75 18-05-2021 12:26:17 13.8 C 67 %
Sensor: Nr:Datum:Temp:Feuchte:
G-T/H 76 18-05-2021 12:36:17 13.8 C 67 %
77 18-05-2021 12:46:17 13.8 C 67 %
78 18-05-2021 12:56:17 13.8 C 67 %
79 18-05-2021 13:06:17 13.8 C 67 %
80 18-05-2021 13:16:17 13.8 C 67 %
81 18-05-2021 13:26:17 13.8 C 67 %
82 18-05-2021 13:36:17 13.8 C 67 %
83 18-05-2021 13:46:17 13.8 C 67 %
84 18-05-2021 13:56:17 13.8 C 67 %
85 18-05-2021 14:06:17 13.8 C 67 %
86 18-05-2021 14:16:17 13.8 C 67 %
87 18-05-2021 14:26:17 13.8 C 67 %
88 18-05-2021 14:36:17 13.8 C 67 %
89 18-05-2021 14:46:17 13.8 C 67 %
90 18-05-2021 14:56:17 13.8 C 67 %
91 18-05-2021 15:06:17 13.8 C 67 %
92 18-05-2021 15:16:17 13.8 C 67 %
93 18-05-2021 15:26:17 13.9 C 68 %
94 18-05-2021 15:36:17 13.9 C 68 %
95 18-05-2021 15:46:17 13.9 C 68 %
96 18-05-2021 15:56:17 13.9 C 68 %
97 18-05-2021 16:06:17 13.9 C 68 %
98 18-05-2021 16:16:17 13.9 C 68 %
99 18-05-2021 16:26:17 13.9 C 68 %
100 18-05-2021 16:36:17 13.9 C 68 %
Sensor: Nr:Datum:Temp:Feuchte:
G-T/H 101 18-05-2021 16:46:17 14 C 67 %
102 18-05-2021 16:56:17 14 C 67 %
103 18-05-2021 17:06:17 14 C 67 %
104 18-05-2021 17:16:17 14 C 67 %
105 18-05-2021 17:26:17 14 C 67 %
106 18-05-2021 17:36:17 14 C 67 %
107 18-05-2021 17:46:17 14 C 67 %
108 18-05-2021 17:56:17 14 C 67 %
109 18-05-2021 18:06:17 14 C 67 %
110 18-05-2021 18:16:17 14 C 67 %
111 18-05-2021 18:26:17 14 C 67 %
112 18-05-2021 18:36:17 14.1 C 67 %
113 18-05-2021 18:46:18 14.1 C 67 %
114 18-05-2021 18:56:18 14.1 C 67 %
115 18-05-2021 19:06:17 14.1 C 67 %
116 18-05-2021 19:16:17 14.1 C 67 %
117 18-05-2021 19:26:17 14.1 C 67 %
118 18-05-2021 19:36:17 14 C 67 %
119 18-05-2021 19:46:17 14 C 67 %
120 18-05-2021 19:56:17 14 C 67 %
121 18-05-2021 20:06:17 14 C 67 %
122 18-05-2021 20:16:17 14 C 67 %
123 18-05-2021 20:26:17 14 C 67 %
124 18-05-2021 20:36:17 14 C 67 %
125 18-05-2021 20:46:17 14 C 67 %
Sensor: Nr:Datum:Temp:Feuchte:
G-T/H 126 18-05-2021 20:56:17 14 C 67 %
127 18-05-2021 21:06:17 14 C 67 %
128 18-05-2021 21:16:17 14 C 67 %
129 18-05-2021 21:26:17 14 C 67 %
130 18-05-2021 21:36:17 14 C 67 %
131 18-05-2021 21:46:17 14 C 67 %
132 18-05-2021 21:56:17 14 C 67 %
133 18-05-2021 22:06:17 13.9 C 68 %
134 18-05-2021 22:16:17 13.9 C 68 %
135 18-05-2021 22:26:17 13.9 C 68 %
136 18-05-2021 22:36:17 13.9 C 68 %
137 18-05-2021 22:46:18 13.9 C 68 %
138 18-05-2021 22:56:18 13.9 C 68 %
139 18-05-2021 23:06:18 13.9 C 68 %
140 18-05-2021 23:16:17 13.8 C 68 %
141 18-05-2021 23:26:18 13.8 C 68 %
142 18-05-2021 23:36:17 13.8 C 68 %
143 18-05-2021 23:46:17 13.8 C 68 %
144 18-05-2021 23:56:17 13.8 C 68 %

Legende:
   Min
   Max


Maximal/Minimal-Werte vom 18.05.2021 - 18.05.2021

Sensor Min Max Avg
Temp
(Aussen-T/F)
7.7 °C
18-05-2021  23:56:17
16.2 °C
18-05-2021  17:06:17
10.45 °C
Feuchte
(Aussen-T/F)
31 %
18-05-2021  17:06:17
48 %
18-05-2021  20:06:17
41.93 %
Temp
(G-T/H)
13.7 °C
18-05-2021  11:56:17
14.4 °C
18-05-2021  00:06:17
13.99 °C
Feuchte
(G-T/H)
66 %
18-05-2021  06:06:17
68 %
18-05-2021  15:26:17
67.06 %

Die Daten stammen von einer Davis Vantage Pro 2 Wetter-Station und werden unter Linux mit der Software wview2wettercgi und aufbereitet. Alle Angaben erfolgen ohne Gewähr für ihre Vollständigkeit oder Richtigkeit.
Kontakt: Rainer Krienke krienke@uni-koblenz.de . Meine Webseiten an der Uni Koblenz oder privat.
Version: $Revision: 0.78 $